CheckWX is a tool to help pilots better visualize weather data.  It is not intended as a substitute for an official pre-flight weather briefing.

01:22:59 UTC

LBWN TAF
Varna Airport
Varna, Bulgaria
TAF LBWN 232300Z 2400/2424 35012KT 9999 SCT020 BKN040

Feb-24@
00:00 UTC

Feb-24 @ 00:00 UTC

Feb-25@
00:00 UTC

Feb-25 @ 00:00 UTC

TAF LBWN 232300Z 2400/2424 35012KT 9999 SCT020 BKN040
Wind
  • 350° at 12 KTS
Cloud Levels
  • Scattered at 2,000' AGL
  • Broken at 4,000' AGL